Time;durP1;ratioP1;P1;durP2;ratioP2;P2;SDS_P1;SDS_P2;PMS_P1;PMS_P2;Temp;Humidity;BMP_temperature;BMP_pressure;BME280_temperature;BME280_humidity;BME280_pressure;Samples;Min_cycle;Max_cycle;Signal;HPM_P1;HPM_P2
2022/01/18 00:01:15;;;;;;;1.10;1.10;;;5.70;99.90;6.00;103647.00;;;;5054465;28;20219;-66
2022/01/18 00:03:44;;;;;;;0.87;0.87;;;5.60;99.90;5.60;103646.00;;;;5054526;28;20175;-66
2022/01/18 00:06:10;;;;;;;1.63;1.53;;;5.70;99.90;6.20;103651.00;;;;5020916;28;20192;-66
2022/01/18 00:08:42;;;;;;;0.30;0.30;;;5.80;99.90;6.40;103639.00;;;;5035773;28;20178;-66
2022/01/18 00:11:08;;;;;;;2.63;2.43;;;5.90;99.90;5.70;103650.00;;;;5034120;28;20213;-65
2022/01/18 00:13:40;;;;;;;0.60;0.60;;;5.80;99.90;5.90;103648.00;;;;5033872;28;20192;-66
2022/01/18 00:16:22;;;;;;;0.90;0.90;;;5.70;99.90;6.20;103660.00;;;;5018126;28;20175;-66
2022/01/18 00:18:54;;;;;;;3.47;3.27;;;5.70;99.90;6.50;103643.00;;;;5034343;28;20626;-66
2022/01/18 00:24:29;;;;;;;0.40;0.40;;;5.70;99.90;6.10;103648.00;;;;5023152;28;20195;-66
2022/01/18 00:26:58;;;;;;;0.50;0.50;;;5.70;99.90;5.70;103641.00;;;;5033760;28;20179;-66
2022/01/18 00:29:37;;;;;;;0.93;0.93;;;5.70;99.90;5.40;103653.00;;;;5034241;28;20237;-66
2022/01/18 00:32:20;;;;;;;10.20;9.73;;;5.50;99.90;5.40;103625.00;;;;5033591;28;20262;-66
2022/01/18 00:34:50;;;;;;;1.73;1.63;;;5.40;99.90;6.10;103651.00;;;;5034788;28;20190;-66
2022/01/18 00:37:26;;;;;;;0.63;0.63;;;5.70;99.90;6.10;103660.00;;;;5050884;28;20281;-67
2022/01/18 00:40:03;;;;;;;0.77;0.77;;;5.80;99.90;6.10;103657.00;;;;5018387;28;20197;-66
2022/01/18 00:42:36;;;;;;;0.50;0.50;;;5.80;99.90;6.10;103644.00;;;;5033832;28;20194;-66
2022/01/18 00:45:10;;;;;;;0.67;0.67;;;5.80;99.90;6.20;103657.00;;;;5034972;28;20607;-67
2022/01/18 00:47:36;;;;;;;0.50;0.50;;;5.80;99.90;6.20;103650.00;;;;5033922;28;20171;-65
2022/01/18 00:50:08;;;;;;;0.50;0.50;;;6.00;99.90;6.20;103649.00;;;;5033412;28;20262;-66
2022/01/18 00:52:42;;;;;;;0.70;0.70;;;5.90;99.90;6.30;103648.00;;;;5017237;28;20261;-66
2022/01/18 00:55:17;;;;;;;0.57;0.57;;;5.90;99.90;6.30;103655.00;;;;5033827;28;20213;-66
2022/01/18 00:57:48;;;;;;;0.40;0.40;;;5.90;99.90;5.30;103607.00;;;;5034828;28;20171;-66
2022/01/18 01:00:16;;;;;;;0.40;0.40;;;5.60;99.90;5.20;103644.00;;;;5033750;28;20210;-66
2022/01/18 01:02:44;;;;;;;0.40;0.40;;;5.30;99.90;5.40;103651.00;;;;5034405;28;20187;-66
2022/01/18 01:05:16;;;;;;;2.00;1.90;;;5.10;99.90;5.10;103648.00;;;;5034245;28;20280;-66
2022/01/18 01:07:42;;;;;;;1.40;1.40;;;5.00;99.90;5.30;103667.00;;;;5034350;28;20645;-66
2022/01/18 01:10:09;;;;;;;0.50;0.50;;;4.90;99.90;5.00;103652.00;;;;5034588;28;20186;-65
2022/01/18 01:12:37;;;;;;;0.50;0.50;;;4.80;99.90;4.90;103651.00;;;;5034158;28;20209;-66
2022/01/18 01:15:10;;;;;;;0.40;0.40;;;4.70;99.90;4.60;103653.00;;;;5034587;28;20167;-66
2022/01/18 01:17:49;;;;;;;1.50;1.17;;;4.60;99.90;5.10;103665.00;;;;5033240;28;20221;-66
2022/01/18 01:45:15;;;;;;;0.63;0.63;;;4.20;99.90;4.20;103666.00;;;;5033861;28;20192;-66
2022/01/18 01:47:49;;;;;;;0.50;0.50;;;4.20;99.90;4.40;103669.00;;;;5016349;28;20874;-66
2022/01/18 01:50:19;;;;;;;2.37;2.23;;;4.20;99.90;4.80;103666.00;;;;5033750;28;20531;-67
2022/01/18 01:52:50;;;;;;;0.50;0.50;;;4.30;99.90;4.50;103671.00;;;;5048792;28;20202;-66
2022/01/18 01:55:19;;;;;;;0.50;0.50;;;4.30;99.90;4.70;103667.00;;;;5033756;28;20175;-66
2022/01/18 01:57:45;;;;;;;0.80;0.80;;;4.30;99.90;4.40;103667.00;;;;5032405;28;20318;-65
2022/01/18 02:00:23;;;;;;;0.60;0.60;;;4.20;99.90;4.80;103654.00;;;;5049358;28;20171;-65
2022/01/18 02:02:49;;;;;;;0.60;0.60;;;4.30;99.90;4.60;103616.00;;;;5031812;28;20190;-65
2022/01/18 02:05:25;;;;;;;1.00;1.00;;;4.40;99.90;4.30;103659.00;;;;5032247;28;20187;-65
2022/01/18 02:07:51;;;;;;;0.60;0.60;;;4.30;99.90;4.80;103661.00;;;;5048093;28;20171;-65
2022/01/18 02:10:26;;;;;;;0.80;0.80;;;4.40;99.90;4.60;103659.00;;;;5033549;28;20594;-65
2022/01/18 02:12:51;;;;;;;0.50;0.50;;;4.50;99.90;3.60;103649.00;;;;5048560;28;20256;-65
2022/01/18 02:15:19;;;;;;;0.37;0.37;;;4.10;99.90;4.30;103664.00;;;;5033392;28;20214;-66
2022/01/18 02:23:37;;;;;;;1.50;1.40;;;4.40;99.90;3.40;103636.00;;;;5033039;28;20274;-66
2022/01/18 02:26:04;;;;;;;1.00;1.00;;;3.90;99.90;3.70;103653.00;;;;5033538;28;20261;-66
2022/01/18 02:28:31;;;;;;;0.50;0.50;;;4.00;99.90;3.80;103622.00;;;;5033434;28;20179;-66
2022/01/18 02:30:57;;;;;;;1.87;1.77;;;4.00;99.90;3.40;103656.00;;;;5048214;28;20269;-66
2022/01/18 02:33:25;;;;;;;0.30;0.30;;;3.80;99.90;4.00;103654.00;;;;5048646;28;20183;-66
2022/01/18 02:35:56;;;;;;;0.80;0.80;;;4.00;99.90;3.60;103656.00;;;;5048590;28;20182;-66
2022/01/18 02:38:28;;;;;;;0.60;0.60;;;4.00;99.90;3.30;103605.00;;;;5033229;28;20178;-66
2022/01/18 02:40:58;;;;;;;1.27;0.93;;;3.80;99.90;3.50;103657.00;;;;5032935;28;20257;-66
2022/01/18 02:46:13;;;;;;;3.93;3.30;;;3.70;99.90;3.20;103598.00;;;;5031957;28;20185;-67
2022/01/18 02:48:42;;;;;;;0.37;0.37;;;3.60;99.90;3.20;103655.00;;;;5031798;28;20211;-67
2022/01/18 02:51:14;;;;;;;0.30;0.30;;;3.60;99.90;3.10;103649.00;;;;5048314;28;20237;-67
2022/01/18 02:54:06;;;;;;;0.80;0.80;;;3.50;99.90;3.30;103656.00;;;;5031918;28;20194;-68
2022/01/18 02:56:46;;;;;;;0.30;0.30;;;3.50;99.90;3.50;103657.00;;;;5031746;28;20188;-67
2022/01/18 02:59:24;;;;;;;0.57;0.57;;;3.70;99.90;4.00;103616.00;;;;5033018;28;20170;-67
2022/01/18 03:04:48;;;;;;;0.70;0.70;;;4.20;99.90;4.00;103657.00;;;;5052489;28;20277;-67
2022/01/18 03:07:20;;;;;;;1.20;1.13;;;4.10;99.90;4.20;103654.00;;;;5051295;28;20268;-67
2022/01/18 03:09:49;;;;;;;1.17;1.10;;;4.20;99.90;4.00;103666.00;;;;5051700;28;20182;-67
2022/01/18 03:12:20;;;;;;;0.53;0.53;;;4.00;99.90;3.80;103653.00;;;;5051816;28;20198;-68
2022/01/18 03:14:48;;;;;;;0.83;0.83;;;4.00;99.90;3.80;103656.00;;;;5051071;28;20210;-66
2022/01/18 03:17:19;;;;;;;0.97;0.97;;;4.00;99.90;4.00;103611.00;;;;5051654;28;20265;-66
2022/01/18 03:19:55;;;;;;;13.50;12.53;;;4.00;99.90;3.80;103668.00;;;;5054569;28;20256;-66
2022/01/18 03:22:26;;;;;;;1.00;1.00;;;4.00;99.90;3.40;103666.00;;;;5055482;28;20264;-66
2022/01/18 03:25:24;;;;;;;27.53;3.07;;;3.80;99.90;4.20;103673.00;;;;5055401;28;20247;-66
2022/01/18 03:28:06;;;;;;;0.33;0.33;;;4.20;99.90;4.30;103671.00;;;;5056149;28;20620;-67
2022/01/18 03:30:54;;;;;;;4.73;4.33;;;4.20;99.90;4.40;103672.00;;;;5055859;28;20154;-66
2022/01/18 03:33:28;;;;;;;4.57;3.97;;;4.30;99.90;4.30;103651.00;;;;5055201;28;20627;-66
2022/01/18 03:35:57;;;;;;;20.57;13.50;;;4.20;99.90;4.20;103660.00;;;;5054966;28;20189;-67
2022/01/18 03:38:29;;;;;;;0.70;0.70;;;4.30;99.90;4.30;103677.00;;;;5055275;28;20179;-67
2022/01/18 03:41:01;;;;;;;2.83;2.33;;;4.30;99.90;4.70;103606.00;;;;5054759;28;20177;-66
2022/01/18 03:43:29;;;;;;;0.67;0.67;;;4.50;99.90;3.90;103667.00;;;;5038221;28;20546;-66
2022/01/18 03:46:03;;;;;;;0.63;0.63;;;4.30;99.90;3.90;103668.00;;;;5056067;28;20177;-66
2022/01/18 03:48:36;;;;;;;0.63;0.63;;;4.10;99.90;3.70;103657.00;;;;5054994;28;20189;-66
2022/01/18 03:51:05;;;;;;;0.50;0.50;;;4.00;99.90;4.00;103624.00;;;;5054498;28;20185;-66
2022/01/18 03:53:34;;;;;;;0.20;0.20;;;4.00;99.90;3.70;103670.00;;;;5054919;28;20186;-67
2022/01/18 03:56:03;;;;;;;0.30;0.30;;;4.00;99.90;4.00;103677.00;;;;5054685;28;20324;-67
2022/01/18 03:58:34;;;;;;;0.40;0.40;;;4.10;99.90;3.80;103637.00;;;;5038266;28;20277;-67
2022/01/18 04:01:03;;;;;;;1.00;1.00;;;4.10;99.90;4.40;103686.00;;;;5054424;28;20232;-66
2022/01/18 04:03:29;;;;;;;0.30;0.30;;;4.20;99.90;3.90;103669.00;;;;5055729;28;20193;-66
2022/01/18 04:06:00;;;;;;;0.30;0.30;;;4.20;99.90;3.70;103658.00;;;;5054328;28;20178;-66
2022/01/18 04:08:34;;;;;;;0.70;0.70;;;4.00;99.90;3.70;103670.00;;;;5054727;28;20193;-67
2022/01/18 04:10:59;;;;;;;0.63;0.63;;;3.90;99.90;4.30;103685.00;;;;5055503;28;20534;-67
2022/01/18 04:13:28;;;;;;;0.30;0.30;;;4.10;99.90;4.00;103680.00;;;;5054124;28;20182;-67
2022/01/18 04:15:59;;;;;;;0.30;0.30;;;4.10;99.90;4.80;103637.00;;;;5054387;28;20178;-67
2022/01/18 04:18:44;;;;;;;19.13;6.80;;;4.50;99.90;5.00;103696.00;;;;5054405;28;20896;-67
2022/01/18 04:29:19;;;;;;;0.40;0.40;;;4.40;99.90;4.10;103693.00;;;;5055518;28;20187;-67
2022/01/18 04:31:45;;;;;;;0.30;0.30;;;4.30;99.90;4.60;103691.00;;;;5070197;28;20246;-67
2022/01/18 04:34:13;;;;;;;0.37;0.37;;;4.30;99.90;4.80;103692.00;;;;5053781;28;20213;-67
2022/01/18 04:36:44;;;;;;;0.50;0.50;;;4.50;99.90;4.80;103640.00;;;;5053929;28;20541;-66
2022/01/18 04:39:16;;;;;;;0.40;0.40;;;4.60;99.90;4.30;103700.00;;;;5055556;28;20178;-66
2022/01/18 04:41:45;;;;;;;0.40;0.40;;;4.50;99.90;4.50;103700.00;;;;5053421;28;20178;-66
2022/01/18 04:48:25;;;;;;;1.23;1.23;;;4.40;99.90;3.90;103642.00;;;;5054286;28;20174;-67
2022/01/18 04:49:55;;;;;;;0.30;0.30;;;4.50;99.90;4.80;103690.00;;;;5054087;28;20645;-67
2022/01/18 04:52:26;;;;;;;0.40;0.40;;;4.70;99.90;4.60;103678.00;;;;5054734;28;20207;-67
2022/01/18 04:54:59;;;;;;;0.40;0.40;;;4.60;99.90;4.70;103703.00;;;;5053511;28;20212;-67
2022/01/18 05:00:15;;;;;;;0.50;0.50;;;4.60;99.90;4.30;103702.00;;;;5054842;28;20224;-67
2022/01/18 05:02:41;;;;;;;0.70;0.70;;;4.40;99.90;5.40;103695.00;;;;5053380;28;20195;-67
2022/01/18 05:05:11;;;;;;;0.50;0.50;;;4.90;99.90;5.30;103649.00;;;;5053265;28;20187;-66
2022/01/18 05:07:45;;;;;;;0.40;0.40;;;5.10;99.90;5.30;103683.00;;;;5054402;28;20679;-66
2022/01/18 05:10:16;;;;;;;0.40;0.40;;;5.00;99.90;5.00;103690.00;;;;5052863;28;20662;-66
2022/01/18 05:12:45;;;;;;;0.50;0.50;;;4.90;99.90;5.00;103666.00;;;;5053090;28;20322;-66
2022/01/18 05:20:55;;;;;;;0.50;0.50;;;4.60;99.90;4.80;103705.00;;;;5054375;28;20545;-66
2022/01/18 05:23:26;;;;;;;0.50;0.50;;;4.60;99.90;5.50;103695.00;;;;5054184;28;20198;-67
2022/01/18 05:25:54;;;;;;;0.40;0.40;;;4.80;99.90;5.60;103684.00;;;;5052831;28;20175;-66
2022/01/18 05:28:20;;;;;;;1.70;1.70;;;5.10;99.90;5.90;103700.00;;;;5053022;28;20186;-67
2022/01/18 05:30:46;;;;;;;0.50;0.50;;;5.40;99.90;5.30;103696.00;;;;5053900;28;20177;-66
2022/01/18 05:33:12;;;;;;;0.67;0.67;;;5.30;99.90;5.40;103701.00;;;;5053763;28;20620;-67
2022/01/18 05:35:45;;;;;;;0.40;0.40;;;5.10;99.90;5.50;103706.00;;;;5052891;28;20206;-67
2022/01/18 05:38:12;;;;;;;0.80;0.80;;;5.20;99.90;5.80;103692.00;;;;5054083;28;20183;-67
2022/01/18 05:40:45;;;;;;;0.40;0.40;;;5.30;99.90;5.20;103651.00;;;;5051950;28;20185;-66
2022/01/18 05:43:15;;;;;;;0.50;0.50;;;5.10;99.90;4.90;103697.00;;;;5052483;28;20210;-66
2022/01/18 05:45:47;;;;;;;0.40;0.40;;;4.80;99.90;5.10;103667.00;;;;5053599;28;20182;-67
2022/01/18 05:48:17;;;;;;;0.60;0.60;;;4.90;99.90;5.20;103697.00;;;;5054303;28;20278;-66
2022/01/18 05:50:49;;;;;;;0.50;0.50;;;4.80;99.90;5.20;103710.00;;;;5052475;28;20167;-66
2022/01/18 05:53:15;;;;;;;1.00;1.00;;;4.90;99.90;5.20;103704.00;;;;5052404;28;20205;-67
2022/01/18 05:55:46;;;;;;;0.70;0.70;;;4.80;99.90;5.20;103710.00;;;;5052272;28;20539;-67
2022/01/18 05:58:17;;;;;;;0.60;0.60;;;4.90;99.90;5.00;103710.00;;;;5053381;28;20516;-67
2022/01/18 06:00:55;;;;;;;0.60;0.60;;;4.90;99.90;5.30;103703.00;;;;5053789;28;20224;-66
2022/01/18 06:03:35;;;;;;;0.47;0.47;;;4.90;99.90;5.30;103698.00;;;;5053529;28;20193;-66
2022/01/18 06:08:48;;;;;;;0.50;0.50;;;5.10;99.90;5.50;103713.00;;;;5051970;28;20275;-67
2022/01/18 06:11:14;;;;;;;0.50;0.50;;;5.10;99.90;5.00;103702.00;;;;5052277;28;20634;-67
2022/01/18 06:13:40;;;;;;;0.40;0.40;;;5.00;99.90;4.70;103701.00;;;;5052212;28;20180;-67
2022/01/18 06:16:08;;;;;;;0.40;0.40;;;4.80;99.90;4.80;103700.00;;;;5035462;28;20269;-68
2022/01/18 06:18:40;;;;;;;0.60;0.60;;;4.80;99.90;5.10;103707.00;;;;5052108;28;20253;-68
2022/01/18 06:21:09;;;;;;;0.63;0.63;;;4.80;99.90;5.20;103700.00;;;;5051987;28;20540;-68
2022/01/18 06:23:37;;;;;;;0.83;0.80;;;4.80;99.90;5.40;103699.00;;;;5052076;28;20182;-68
2022/01/18 06:26:06;;;;;;;0.50;0.50;;;4.90;99.90;5.60;103685.00;;;;5052170;28;20178;-68
2022/01/18 06:28:34;;;;;;;0.60;0.60;;;5.20;99.90;5.70;103700.00;;;;5052104;28;20179;-68
2022/01/18 06:31:00;;;;;;;0.50;0.50;;;5.20;99.90;5.60;103690.00;;;;5051753;28;20184;-68
2022/01/18 06:33:32;;;;;;;0.50;0.50;;;5.40;99.90;5.90;103647.00;;;;5052268;28;20556;-68
2022/01/18 06:36:00;;;;;;;0.50;0.50;;;5.40;99.90;5.60;103696.00;;;;5052081;28;20271;-68
2022/01/18 06:38:29;;;;;;;1.03;1.03;;;5.40;99.90;6.10;103704.00;;;;5035669;28;20178;-68
2022/01/18 06:40:55;;;;;;;1.67;1.57;;;5.50;99.90;6.40;103699.00;;;;5051624;28;20703;-67
2022/01/18 06:43:21;;;;;;;0.70;0.70;;;5.80;99.90;6.40;103693.00;;;;5053130;28;20278;-67
2022/01/18 06:45:52;;;;;;;0.40;0.40;;;6.00;99.90;4.90;103698.00;;;;5051833;28;20267;-67
2022/01/18 06:48:21;;;;;;;0.73;0.73;;;5.40;99.90;5.00;103695.00;;;;5051853;28;20186;-68
2022/01/18 06:50:54;;;;;;;0.47;0.47;;;5.10;99.90;5.50;103643.00;;;;5051966;28;20265;-68
2022/01/18 06:53:21;;;;;;;0.40;0.40;;;5.20;99.90;5.30;103703.00;;;;5052508;28;20198;-68
2022/01/18 06:55:54;;;;;;;2.30;2.10;;;5.20;99.90;5.10;103699.00;;;;5055763;28;20624;-67
2022/01/18 06:58:20;;;;;;;0.40;0.40;;;5.30;99.90;5.10;103699.00;;;;5055990;28;20178;-68
2022/01/18 07:00:49;;;;;;;0.40;0.40;;;5.10;99.90;5.00;103702.00;;;;5045434;28;20195;-67
2022/01/18 07:03:20;;;;;;;0.40;0.40;;;4.90;99.90;5.40;103687.00;;;;5015980;28;20167;-67
2022/01/18 07:05:57;;;;;;;0.30;0.30;;;5.10;99.90;4.80;103714.00;;;;5017175;28;20187;-67
2022/01/18 07:08:25;;;;;;;0.40;0.40;;;5.00;99.90;5.40;103659.00;;;;5015682;28;20185;-68
2022/01/18 07:10:56;;;;;;;0.50;0.50;;;5.10;99.90;5.30;103701.00;;;;5015646;28;20178;-68
2022/01/18 07:13:25;;;;;;;0.60;0.60;;;5.10;99.90;4.80;103721.00;;;;5015503;28;20214;-67
2022/01/18 07:15:56;;;;;;;0.40;0.40;;;4.90;99.90;5.50;103704.00;;;;5016926;28;20256;-68
2022/01/18 07:18:31;;;;;;;0.40;0.40;;;5.30;99.90;6.00;103717.00;;;;5015784;28;20200;-69
2022/01/18 07:21:02;;;;;;;0.40;0.40;;;5.50;99.90;6.10;103714.00;;;;5016533;28;20209;-67
2022/01/18 07:23:34;;;;;;;0.40;0.40;;;5.70;99.90;5.90;103711.00;;;;5015862;28;20166;-67
2022/01/18 07:26:35;;;;;;;1.70;1.70;;;5.70;99.90;6.00;103710.00;;;;5015702;28;20174;-67
2022/01/18 07:29:49;;;;;;;0.50;0.50;;;5.50;99.90;6.00;103715.00;;;;5015444;28;20234;-67
2022/01/18 07:32:26;;;;;;;0.50;0.50;;;5.60;99.90;6.20;103708.00;;;;5015154;28;20207;-67
2022/01/18 07:34:58;;;;;;;0.50;0.50;;;5.80;99.90;6.60;103715.00;;;;5016380;28;20636;-68
2022/01/18 07:37:34;;;;;;;1.10;1.10;;;6.10;99.90;5.50;103725.00;;;;5019590;28;20347;-67
2022/01/18 07:40:03;;;;;;;0.50;0.50;;;5.70;99.90;6.00;103722.00;;;;5036278;28;20183;-67
2022/01/18 07:42:37;;;;;;;0.50;0.50;;;5.70;99.90;5.60;103723.00;;;;5034343;28;20215;-67
2022/01/18 07:45:11;;;;;;;0.50;0.50;;;5.60;99.90;6.20;103719.00;;;;5035372;28;20193;-67
2022/01/18 07:47:51;;;;;;;0.77;0.77;;;5.80;99.90;6.50;103718.00;;;;5034711;28;20639;-67
2022/01/18 07:50:25;;;;;;;0.60;0.60;;;5.90;99.90;6.70;103669.00;;;;5036204;28;20587;-67
2022/01/18 07:52:51;;;;;;;0.60;0.60;;;6.20;99.90;6.70;103718.00;;;;5034742;28;20206;-67
2022/01/18 07:55:22;;;;;;;0.50;0.50;;;6.20;99.90;5.70;103671.00;;;;5034691;28;20271;-67
2022/01/18 07:57:57;;;;;;;0.60;0.60;;;5.90;99.90;6.30;103719.00;;;;5036107;28;20187;-67
2022/01/18 08:00:31;;;;;;;0.50;0.50;;;6.00;99.90;6.60;103719.00;;;;5034552;28;20168;-67
2022/01/18 08:03:04;;;;;;;0.50;0.50;;;6.20;99.90;6.70;103728.00;;;;5035883;28;20525;-66
2022/01/18 08:05:36;;;;;;;0.60;0.60;;;6.30;99.90;6.80;103737.00;;;;5020270;28;20185;-67
2022/01/18 08:08:13;;;;;;;1.43;1.43;;;6.40;99.90;6.80;103738.00;;;;5031099;28;20180;-67
2022/01/18 08:10:46;;;;;;;0.60;0.60;;;6.40;99.90;6.00;103728.00;;;;5034798;28;20649;-67
2022/01/18 08:13:26;;;;;;;0.50;0.50;;;6.10;99.90;6.50;103752.00;;;;5050837;28;20586;-67
2022/01/18 08:16:21;;;;;;;0.60;0.60;;;6.20;99.90;6.70;103720.00;;;;5033571;28;20195;-67
2022/01/18 08:18:51;;;;;;;0.70;0.70;;;6.30;99.90;6.90;103735.00;;;;5024243;28;20190;-67
2022/01/18 08:21:23;;;;;;;0.70;0.70;;;6.40;99.90;6.90;103747.00;;;;5015476;28;20181;-67
2022/01/18 08:23:51;;;;;;;0.60;0.60;;;6.50;99.90;6.60;103739.00;;;;5014850;28;20182;-67
2022/01/18 08:26:21;;;;;;;0.93;0.93;;;6.40;99.90;6.20;103739.00;;;;5014718;28;20632;-67
2022/01/18 08:28:55;;;;;;;2.30;2.20;;;6.20;99.90;6.50;103732.00;;;;5022425;28;20236;-67
2022/01/18 08:31:25;;;;;;;0.70;0.70;;;6.20;99.90;6.70;103722.00;;;;5035054;28;20251;-67
2022/01/18 08:33:53;;;;;;;0.60;0.60;;;6.30;99.90;6.80;103734.00;;;;5017381;28;20181;-67
2022/01/18 08:36:22;;;;;;;0.70;0.70;;;6.40;99.90;6.60;103710.00;;;;5050258;28;20570;-65
2022/01/18 08:38:53;;;;;;;0.60;0.60;;;6.40;99.90;6.60;103727.00;;;;5034088;28;20246;-65
2022/01/18 08:41:26;;;;;;;0.70;0.70;;;6.40;99.90;7.00;103733.00;;;;5050368;28;20283;-66
2022/01/18 08:44:01;;;;;;;0.60;0.60;;;6.60;99.90;7.40;103736.00;;;;5027532;28;20198;-67
2022/01/18 08:46:29;;;;;;;0.70;0.70;;;6.80;99.90;7.70;103700.00;;;;5018189;28;20186;-66
2022/01/18 08:49:00;;;;;;;0.60;0.60;;;7.20;99.90;7.70;103718.00;;;;5030449;28;20209;-67
2022/01/18 08:51:29;;;;;;;0.50;0.50;;;7.20;99.90;7.70;103731.00;;;;5030281;28;20192;-67
2022/01/18 08:53:55;;;;;;;0.60;0.60;;;7.20;99.90;8.00;103730.00;;;;5021298;28;20189;-68
2022/01/18 08:56:23;;;;;;;0.60;0.60;;;7.40;99.90;8.00;103687.00;;;;5034934;28;20228;-68
2022/01/18 08:58:52;;;;;;;0.70;0.70;;;7.50;99.90;7.90;103720.00;;;;5033470;28;20193;-69
2022/01/18 09:01:21;;;;;;;0.70;0.70;;;7.50;99.90;7.90;103728.00;;;;5033706;28;20173;-60
2022/01/18 09:03:47;;;;;;;0.70;0.70;;;7.50;99.90;8.00;103702.00;;;;5032534;28;20274;-67
2022/01/18 09:06:19;;;;;;;1.70;1.60;;;7.50;99.90;7.70;103735.00;;;;5020891;28;20619;-68
2022/01/18 09:08:55;;;;;;;2.07;1.93;;;7.50;99.90;7.70;103742.00;;;;5014136;28;20637;-67
2022/01/18 09:11:24;;;;;;;0.60;0.60;;;7.40;99.90;7.90;103740.00;;;;5039526;28;20226;-67
2022/01/18 09:13:54;;;;;;;1.60;1.53;;;7.40;99.90;7.90;103709.00;;;;5027193;28;20665;-67
2022/01/18 09:16:21;;;;;;;0.83;0.83;;;7.50;99.90;7.80;103698.00;;;;5039038;28;20188;-67
2022/01/18 09:18:50;;;;;;;0.70;0.70;;;7.50;99.90;7.90;103729.00;;;;5040503;28;20178;-67
2022/01/18 09:21:17;;;;;;;0.60;0.60;;;7.60;99.90;7.50;103696.00;;;;5041515;28;20194;-67
2022/01/18 09:23:48;;;;;;;2.60;2.50;;;7.60;99.90;7.50;103744.00;;;;5041594;28;20189;-67
2022/01/18 09:26:14;;;;;;;0.77;0.77;;;7.40;99.90;7.90;103741.00;;;;5041267;28;20571;-67
2022/01/18 09:28:42;;;;;;;2.20;2.17;;;7.50;99.90;7.90;103747.00;;;;5040482;28;20183;-67
2022/01/18 09:31:10;;;;;;;0.50;0.50;;;7.60;99.90;8.30;103711.00;;;;5033584;28;20610;-68
2022/01/18 09:33:37;;;;;;;1.63;1.63;;;7.70;99.90;8.30;103754.00;;;;5034073;28;20199;-69
2022/01/18 09:36:07;;;;;;;1.20;1.20;;;7.80;99.90;8.40;103748.00;;;;5049575;28;20183;-68
2022/01/18 09:38:36;;;;;;;0.60;0.60;;;8.00;99.90;8.50;103755.00;;;;5049027;28;20186;-68
2022/01/18 09:41:09;;;;;;;0.60;0.60;;;8.00;99.90;8.50;103748.00;;;;5033020;28;20549;-68
2022/01/18 09:43:43;;;;;;;0.77;0.77;;;8.10;99.90;8.50;103762.00;;;;5033564;28;20199;-68
2022/01/18 09:46:13;;;;;;;7.37;3.17;;;8.10;99.90;7.50;103740.00;;;;5032474;28;20267;-68
2022/01/18 09:48:44;;;;;;;0.90;0.90;;;7.80;99.90;7.80;103744.00;;;;5037485;28;20187;-68
2022/01/18 09:51:12;;;;;;;0.57;0.57;;;7.70;99.90;8.40;103754.00;;;;5042688;28;20194;-68
2022/01/18 09:53:38;;;;;;;0.50;0.50;;;7.80;99.90;9.00;103742.00;;;;5049491;28;20711;-68
2022/01/18 09:56:07;;;;;;;1.13;0.87;;;8.20;99.90;8.90;103760.00;;;;5040925;28;20186;-68
2022/01/18 09:58:36;;;;;;;0.60;0.60;;;8.40;99.90;8.60;103747.00;;;;5041833;28;20659;-68
2022/01/18 10:01:11;;;;;;;0.70;0.70;;;8.30;99.90;8.70;103756.00;;;;5047632;28;20265;-69
2022/01/18 10:03:45;;;;;;;0.93;0.93;;;8.30;99.90;9.00;103755.00;;;;5057179;28;20639;-69
2022/01/18 10:06:11;;;;;;;2.50;2.40;;;8.50;99.90;8.70;103756.00;;;;5057019;28;20209;-68
2022/01/18 10:08:50;;;;;;;0.50;0.50;;;8.50;99.90;8.80;103711.00;;;;5040987;28;20540;-68
2022/01/18 10:11:23;;;;;;;1.20;1.20;;;8.50;99.90;9.10;103767.00;;;;5057137;28;20194;-71
2022/01/18 10:14:02;;;;;;;0.77;0.77;;;8.70;99.90;9.10;103753.00;;;;5042112;28;20194;-67
2022/01/18 10:16:35;;;;;;;0.60;0.60;;;8.60;99.90;9.00;103758.00;;;;5057655;28;20191;-67
2022/01/18 10:19:10;;;;;;;1.10;1.10;;;8.70;99.90;9.30;103752.00;;;;5040982;28;20182;-67
2022/01/18 10:33:26;;;;;;;0.53;0.53;;;7.90;99.90;7.70;103731.00;;;;5077856;27;20607;-67
2022/01/18 10:36:13;;;;;;;2.10;2.00;;;7.90;99.90;8.50;103756.00;;;;5059346;28;20267;-67
2022/01/18 10:38:47;;;;;;;2.93;2.80;;;8.20;99.90;8.70;103760.00;;;;5039921;28;20181;-68
2022/01/18 10:41:30;;;;;;;6.47;6.23;;;8.30;99.90;8.40;103759.00;;;;5058366;28;20194;-68
2022/01/18 10:44:16;;;;;;;1.10;1.07;;;8.30;99.90;8.10;103717.00;;;;5057590;28;20189;-68
2022/01/18 10:47:14;;;;;;;0.97;0.97;;;8.20;99.90;8.90;103757.00;;;;5058657;28;20652;-68
2022/01/18 10:49:50;;;;;;;2.03;1.33;;;8.40;99.90;8.30;103742.00;;;;5058031;28;20228;-68
2022/01/18 10:52:27;;;;;;;1.83;1.73;;;8.40;99.90;8.70;103749.00;;;;5058394;28;20213;-68
2022/01/18 10:55:03;;;;;;;0.60;0.60;;;8.30;99.90;8.50;103736.00;;;;5057456;28;20242;-67
2022/01/18 10:57:43;;;;;;;0.50;0.50;;;8.40;99.90;9.00;103732.00;;;;5057535;28;20196;-68
2022/01/18 11:00:18;;;;;;;0.50;0.50;;;8.60;99.90;9.30;103735.00;;;;5056780;28;20186;-68
2022/01/18 11:02:51;;;;;;;1.07;0.97;;;8.80;99.90;9.60;103691.00;;;;5057320;28;20197;-68
2022/01/18 11:05:42;;;;;;;0.50;0.50;;;8.90;99.90;8.90;103720.00;;;;5058533;28;20182;-68
2022/01/18 11:08:20;;;;;;;0.50;0.50;;;8.80;99.90;9.00;103694.00;;;;5058089;28;20190;-67
2022/01/18 11:10:52;;;;;;;1.13;1.13;;;8.70;99.90;8.90;103715.00;;;;5053134;28;20191;-68
2022/01/18 11:13:33;;;;;;;0.40;0.40;;;8.60;99.90;9.40;103709.00;;;;5041250;28;20612;-68
2022/01/18 11:16:15;;;;;;;1.90;1.80;;;8.80;99.90;10.10;103657.00;;;;5058418;28;20672;-67
2022/01/18 11:18:51;;;;;;;0.80;0.80;;;9.30;99.90;9.90;103704.00;;;;5057205;28;20269;-67
2022/01/18 11:21:24;;;;;;;5.13;2.50;;;9.60;99.90;9.80;103688.00;;;;5058970;28;20204;-67
2022/01/18 11:24:00;;;;;;;0.73;0.73;;;9.60;99.90;9.20;103690.00;;;;5059672;28;20638;-68
2022/01/18 11:26:32;;;;;;;0.40;0.40;;;9.30;99.90;9.90;103689.00;;;;5056077;28;20172;-68
2022/01/18 11:29:04;;;;;;;0.40;0.40;;;9.40;99.90;10.10;103687.00;;;;5056773;28;20638;-68
2022/01/18 11:31:35;;;;;;;0.57;0.57;;;9.60;99.90;9.60;103683.00;;;;5056009;28;20226;-68
2022/01/18 11:34:13;;;;;;;0.40;0.40;;;9.60;99.90;9.80;103681.00;;;;5065346;28;20289;-68
2022/01/18 11:37:00;;;;;;;0.40;0.40;;;9.50;99.90;10.40;103641.00;;;;5065316;28;20276;-68
2022/01/18 11:39:37;;;;;;;1.33;1.33;;;9.70;99.90;9.90;103667.00;;;;5057689;28;20188;-68
2022/01/18 11:42:14;;;;;;;1.17;1.17;;;9.70;99.90;10.20;103671.00;;;;5057983;28;20190;-68
2022/01/18 11:44:45;;;;;;;7.43;4.13;;;9.70;99.90;10.10;103635.00;;;;5052668;28;20193;-68
2022/01/18 11:47:34;;;;;;;2.30;1.97;;;9.90;99.90;10.60;103652.00;;;;5051410;28;20674;-68
2022/01/18 11:50:18;;;;;;;0.40;0.40;;;10.20;99.90;9.50;103650.00;;;;5044132;28;20184;-68
2022/01/18 11:53:26;;;;;;;0.63;0.63;;;9.90;99.90;9.40;103643.00;;;;5044984;28;20194;-68
2022/01/18 11:56:46;;;;;;;0.30;0.30;;;9.90;99.90;10.10;103644.00;;;;5044671;28;20193;-67
2022/01/18 11:59:22;;;;;;;0.40;0.40;;;9.60;99.90;11.00;103639.00;;;;5043911;28;20618;-67
2022/01/18 12:02:06;;;;;;;1.30;1.30;;;10.40;99.90;10.10;103633.00;;;;5036811;28;20198;-67
2022/01/18 12:04:54;;;;;;;0.30;0.30;;;10.30;99.90;11.00;103596.00;;;;5034586;28;20185;-67
2022/01/18 12:07:42;;;;;;;1.40;1.40;;;10.60;99.90;9.50;103584.00;;;;5035996;28;20250;-67
2022/01/18 12:10:50;;;;;;;0.30;0.30;;;10.20;99.90;10.70;103631.00;;;;5034784;28;20518;-68
2022/01/18 12:13:48;;;;;;;3.70;3.40;;;10.10;99.90;11.80;103635.00;;;;5035367;28;20189;-66
2022/01/18 12:16:29;;;;;;;0.20;0.20;;;11.00;99.90;10.70;103620.00;;;;5022404;28;20706;-66
2022/01/18 12:19:06;;;;;;;1.33;1.33;;;10.70;99.90;11.90;103620.00;;;;5034360;28;20182;-65
2022/01/18 12:21:43;;;;;;;0.60;0.60;;;11.10;99.90;11.60;103617.00;;;;5033985;28;20249;-66
2022/01/18 12:24:30;;;;;;;0.30;0.30;;;11.30;99.90;12.40;103622.00;;;;5034360;28;20211;-66
2022/01/18 12:27:29;;;;;;;0.40;0.40;;;11.70;99.90;11.50;103620.00;;;;5027355;28;20662;-66
2022/01/18 12:30:38;;;;;;;1.33;1.27;;;11.70;99.90;10.60;103606.00;;;;5034145;28;20188;-66
2022/01/18 12:33:23;;;;;;;2.00;0.90;;;11.30;99.90;11.70;103605.00;;;;5033838;28;20229;-65
2022/01/18 12:36:32;;;;;;;0.30;0.30;;;11.30;99.90;11.60;103615.00;;;;5043683;28;20227;-66
2022/01/18 12:39:11;;;;;;;0.30;0.30;;;11.40;99.90;10.90;103607.00;;;;5049214;28;20276;-66
2022/01/18 12:41:45;;;;;;;1.37;1.37;;;11.20;99.90;10.40;103589.00;;;;5037452;28;20196;-66